Robstown, TX (78380)

1:27 PM CDT on August 24, 2016 (GMT -0500)
| | Change Station

Elev -9999 ft 0.00 °N, 0.00 °E | Updated

Clear
Clear
93 °F
Feels Like 101 °F
N
15
Wind Variable Wind from SE
Gusts mph

Today
High -- | Low -- °F
--% Chance of Precip.
Yesterday
High -- | Low -- °F
Precip. -- in
Pressure 30.08 in
Visibility 10.0 miles
Clouds Scattered Clouds 5000 ft
Heat Index 101 °F
Dew Point 71 °F
Humidity 49%
Rainfall --
Snow Depth Not available.
7:06 AM 7:59 PM
Waning Gibbous, 54% visible
METAR KRBO 241810Z AUTO 18011G15KT 10SM SCT050 35/22 A3008 RMK AO2 T03470218
Pressure 30.08 in
Visibility 10.0 miles
Clouds Scattered Clouds 5000 ft
Heat Index 101 °F
Dew Point 71 °F
Humidity 49%
Rainfall --
Snow Depth Not available.
7:06 AM 7:59 PM
Waning Gibbous, 54% visible
METAR KRBO 241810Z AUTO 18011G15KT 10SM SCT050 35/22 A3008 RMK AO2 T03470218

10-Day Weather Forecast

Almanac

Astronomy

Aug. 24, 2016 Rise Set
Actual Time
Civil Twilight
Nautical Twilight
Astronomical Twilight
Moon
Length of Visible Light
Length of Day
Tomorrow will be .
, % of the Moon is Illuminated

Today's Extremes

State Highs State Lows

Community

WunderPhotos

Upload Photos

1,934,664 photos uploaded!

WunderBlog® & News

Nearby

Air Quality

  Air Quality AQ Index Pollutant
Not available.

Snow Depth

Station Depth Elevation

Earthquake Activity

City Distance Mag. Time & Date
Minimum magnitude displayed is 2.5.

Coastal Water Temperatures

Place Temperature

Stations

Nearby Weather Stations

Station Location Temp. Windchill Dew Point Humidity Wind Precip. Elev Updated Type
                   

Watches & Warnings

There are currently no watches in effect.